sensor_id;sensor_type;location;lat;lon;timestamp;temperature;humidity
31639;DHT22;18248;51.522;7.020;2023-05-07T00:01:53;17.00;99.90
31639;DHT22;18248;51.522;7.020;2023-05-07T00:04:52;17.00;99.90
31639;DHT22;18248;51.522;7.020;2023-05-07T00:07:51;17.00;99.90
31639;DHT22;18248;51.522;7.020;2023-05-07T00:10:50;17.00;99.90
31639;DHT22;18248;51.522;7.020;2023-05-07T00:13:49;17.00;99.90
31639;DHT22;18248;51.522;7.020;2023-05-07T00:16:48;16.90;99.90
31639;DHT22;18248;51.522;7.020;2023-05-07T00:19:46;16.90;99.90
31639;DHT22;18248;51.522;7.020;2023-05-07T00:22:45;16.90;99.90
31639;DHT22;18248;51.522;7.020;2023-05-07T00:25:43;16.90;99.90
31639;DHT22;18248;51.522;7.020;2023-05-07T00:28:42;16.90;99.90
31639;DHT22;18248;51.522;7.020;2023-05-07T00:31:40;16.90;99.90
31639;DHT22;18248;51.522;7.020;2023-05-07T00:34:40;16.90;99.90
31639;DHT22;18248;51.522;7.020;2023-05-07T00:37:38;16.80;99.90
31639;DHT22;18248;51.522;7.020;2023-05-07T00:40:37;16.80;99.90
31639;DHT22;18248;51.522;7.020;2023-05-07T00:43:36;16.80;99.90
31639;DHT22;18248;51.522;7.020;2023-05-07T00:46:34;16.70;99.90
31639;DHT22;18248;51.522;7.020;2023-05-07T00:49:38;16.70;99.90
31639;DHT22;18248;51.522;7.020;2023-05-07T00:52:38;16.60;99.90
31639;DHT22;18248;51.522;7.020;2023-05-07T00:55:38;16.60;99.90
31639;DHT22;18248;51.522;7.020;2023-05-07T00:58:36;16.60;99.90
31639;DHT22;18248;51.522;7.020;2023-05-07T01:01:35;16.50;99.90
31639;DHT22;18248;51.522;7.020;2023-05-07T01:04:35;16.60;99.90
31639;DHT22;18248;51.522;7.020;2023-05-07T01:07:34;16.60;99.90
31639;DHT22;18248;51.522;7.020;2023-05-07T01:10:35;16.50;99.90
31639;DHT22;18248;51.522;7.020;2023-05-07T01:13:35;16.50;99.90
31639;DHT22;18248;51.522;7.020;2023-05-07T01:16:34;16.50;99.90
31639;DHT22;18248;51.522;7.020;2023-05-07T01:19:34;16.60;99.90
31639;DHT22;18248;51.522;7.020;2023-05-07T01:22:40;16.50;99.90
31639;DHT22;18248;51.522;7.020;2023-05-07T01:25:39;16.50;99.90
31639;DHT22;18248;51.522;7.020;2023-05-07T01:28:37;16.50;99.90
31639;DHT22;18248;51.522;7.020;2023-05-07T01:31:37;16.50;99.90
31639;DHT22;18248;51.522;7.020;2023-05-07T01:34:38;16.50;99.90
31639;DHT22;18248;51.522;7.020;2023-05-07T01:37:39;16.50;99.90
31639;DHT22;18248;51.522;7.020;2023-05-07T01:40:37;16.50;99.90
31639;DHT22;18248;51.522;7.020;2023-05-07T01:43:36;16.50;99.90
31639;DHT22;18248;51.522;7.020;2023-05-07T01:46:35;16.50;99.90
31639;DHT22;18248;51.522;7.020;2023-05-07T01:49:35;16.40;99.90
31639;DHT22;18248;51.522;7.020;2023-05-07T01:52:34;16.40;99.90
31639;DHT22;18248;51.522;7.020;2023-05-07T01:55:33;16.40;99.90
31639;DHT22;18248;51.522;7.020;2023-05-07T01:58:31;16.40;99.90
31639;DHT22;18248;51.522;7.020;2023-05-07T02:01:30;16.40;99.90
31639;DHT22;18248;51.522;7.020;2023-05-07T02:04:28;16.40;99.90
31639;DHT22;18248;51.522;7.020;2023-05-07T02:07:27;16.30;99.90
31639;DHT22;18248;51.522;7.020;2023-05-07T02:10:26;16.30;99.90
31639;DHT22;18248;51.522;7.020;2023-05-07T02:13:29;16.30;99.90
31639;DHT22;18248;51.522;7.020;2023-05-07T02:16:27;16.40;99.90
31639;DHT22;18248;51.522;7.020;2023-05-07T02:19:26;16.30;99.90
31639;DHT22;18248;51.522;7.020;2023-05-07T02:22:24;16.40;99.90
31639;DHT22;18248;51.522;7.020;2023-05-07T02:25:24;16.30;99.90
31639;DHT22;18248;51.522;7.020;2023-05-07T02:28:22;16.30;99.90
31639;DHT22;18248;51.522;7.020;2023-05-07T02:31:21;16.30;99.90
31639;DHT22;18248;51.522;7.020;2023-05-07T02:34:19;16.30;99.90
31639;DHT22;18248;51.522;7.020;2023-05-07T02:37:18;16.20;99.90
31639;DHT22;18248;51.522;7.020;2023-05-07T02:40:16;16.20;99.90
31639;DHT22;18248;51.522;7.020;2023-05-07T02:43:15;16.20;99.90
31639;DHT22;18248;51.522;7.020;2023-05-07T02:46:13;16.20;99.90
31639;DHT22;18248;51.522;7.020;2023-05-07T02:49:12;16.20;99.90
31639;DHT22;18248;51.522;7.020;2023-05-07T02:52:12;16.20;99.90
31639;DHT22;18248;51.522;7.020;2023-05-07T02:55:10;16.10;99.90
31639;DHT22;18248;51.522;7.020;2023-05-07T02:58:09;16.10;99.90
31639;DHT22;18248;51.522;7.020;2023-05-07T03:01:08;16.10;99.90
31639;DHT22;18248;51.522;7.020;2023-05-07T03:04:07;16.10;99.90
31639;DHT22;18248;51.522;7.020;2023-05-07T03:07:05;16.10;99.90
31639;DHT22;18248;51.522;7.020;2023-05-07T03:10:04;16.10;99.90
31639;DHT22;18248;51.522;7.020;2023-05-07T03:13:08;16.00;99.90
31639;DHT22;18248;51.522;7.020;2023-05-07T03:16:06;16.00;99.90
31639;DHT22;18248;51.522;7.020;2023-05-07T03:19:05;16.10;99.90
31639;DHT22;18248;51.522;7.020;2023-05-07T03:22:04;16.00;99.90
31639;DHT22;18248;51.522;7.020;2023-05-07T03:25:02;16.00;99.90
31639;DHT22;18248;51.522;7.020;2023-05-07T03:28:01;16.00;99.90
31639;DHT22;18248;51.522;7.020;2023-05-07T03:30:59;15.90;99.90
31639;DHT22;18248;51.522;7.020;2023-05-07T03:33:59;15.90;99.90
31639;DHT22;18248;51.522;7.020;2023-05-07T03:37:00;15.90;99.90
31639;DHT22;18248;51.522;7.020;2023-05-07T03:39:58;15.80;99.90
31639;DHT22;18248;51.522;7.020;2023-05-07T03:42:57;15.80;99.90
31639;DHT22;18248;51.522;7.020;2023-05-07T03:45:55;15.80;99.90
31639;DHT22;18248;51.522;7.020;2023-05-07T03:48:55;15.80;99.90
31639;DHT22;18248;51.522;7.020;2023-05-07T03:51:54;15.80;99.90
31639;DHT22;18248;51.522;7.020;2023-05-07T03:54:53;15.80;99.90
31639;DHT22;18248;51.522;7.020;2023-05-07T03:57:51;15.80;99.90
31639;DHT22;18248;51.522;7.020;2023-05-07T04:00:51;15.80;99.90
31639;DHT22;18248;51.522;7.020;2023-05-07T04:03:50;15.80;99.90
31639;DHT22;18248;51.522;7.020;2023-05-07T04:06:48;15.80;99.90
31639;DHT22;18248;51.522;7.020;2023-05-07T04:09:47;15.80;99.90
31639;DHT22;18248;51.522;7.020;2023-05-07T04:12:45;15.80;99.90
31639;DHT22;18248;51.522;7.020;2023-05-07T04:15:44;15.70;99.90
31639;DHT22;18248;51.522;7.020;2023-05-07T04:18:46;15.70;99.90
31639;DHT22;18248;51.522;7.020;2023-05-07T04:21:44;15.70;99.90
31639;DHT22;18248;51.522;7.020;2023-05-07T04:24:43;15.70;99.90
31639;DHT22;18248;51.522;7.020;2023-05-07T04:27:41;15.70;99.90
31639;DHT22;18248;51.522;7.020;2023-05-07T04:30:41;15.70;99.90
31639;DHT22;18248;51.522;7.020;2023-05-07T04:33:41;15.70;99.90
31639;DHT22;18248;51.522;7.020;2023-05-07T04:36:40;15.70;99.90
31639;DHT22;18248;51.522;7.020;2023-05-07T04:39:38;15.70;99.90
31639;DHT22;18248;51.522;7.020;2023-05-07T04:42:37;15.70;99.90
31639;DHT22;18248;51.522;7.020;2023-05-07T04:45:36;15.70;99.90
31639;DHT22;18248;51.522;7.020;2023-05-07T04:48:34;15.70;99.90
31639;DHT22;18248;51.522;7.020;2023-05-07T04:51:33;15.70;99.90
31639;DHT22;18248;51.522;7.020;2023-05-07T04:54:35;15.70;99.90
31639;DHT22;18248;51.522;7.020;2023-05-07T04:57:33;15.80;99.90
31639;DHT22;18248;51.522;7.020;2023-05-07T05:00:32;15.80;99.90
31639;DHT22;18248;51.522;7.020;2023-05-07T05:03:31;15.80;99.90
31639;DHT22;18248;51.522;7.020;2023-05-07T05:06:30;15.80;99.90
31639;DHT22;18248;51.522;7.020;2023-05-07T05:09:29;15.80;99.90
31639;DHT22;18248;51.522;7.020;2023-05-07T05:12:27;15.90;99.90
31639;DHT22;18248;51.522;7.020;2023-05-07T05:15:26;15.90;99.90
31639;DHT22;18248;51.522;7.020;2023-05-07T05:18:24;15.90;99.90
31639;DHT22;18248;51.522;7.020;2023-05-07T05:21:23;16.00;99.90
31639;DHT22;18248;51.522;7.020;2023-05-07T05:24:24;16.00;99.90
31639;DHT22;18248;51.522;7.020;2023-05-07T05:27:24;16.00;99.90
31639;DHT22;18248;51.522;7.020;2023-05-07T05:30:22;16.10;99.90
31639;DHT22;18248;51.522;7.020;2023-05-07T05:33:21;16.20;99.90
31639;DHT22;18248;51.522;7.020;2023-05-07T05:36:19;16.30;99.90
31639;DHT22;18248;51.522;7.020;2023-05-07T05:39:18;16.40;99.90
31639;DHT22;18248;51.522;7.020;2023-05-07T05:42:18;16.50;99.90
31639;DHT22;18248;51.522;7.020;2023-05-07T05:45:16;16.60;99.90
31639;DHT22;18248;51.522;7.020;2023-05-07T05:48:16;16.70;99.90
31639;DHT22;18248;51.522;7.020;2023-05-07T05:51:15;16.90;99.90
31639;DHT22;18248;51.522;7.020;2023-05-07T05:54:13;17.00;99.90
31639;DHT22;18248;51.522;7.020;2023-05-07T05:57:13;17.20;99.90
31639;DHT22;18248;51.522;7.020;2023-05-07T06:00:12;17.20;99.90
31639;DHT22;18248;51.522;7.020;2023-05-07T06:03:11;17.40;99.90
31639;DHT22;18248;51.522;7.020;2023-05-07T06:06:11;17.50;99.90
31639;DHT22;18248;51.522;7.020;2023-05-07T06:09:09;17.80;99.90
31639;DHT22;18248;51.522;7.020;2023-05-07T06:12:08;18.80;99.90
31639;DHT22;18248;51.522;7.020;2023-05-07T06:15:07;19.80;99.90
31639;DHT22;18248;51.522;7.020;2023-05-07T06:18:07;20.30;99.90
31639;DHT22;18248;51.522;7.020;2023-05-07T06:21:05;20.80;99.90
31639;DHT22;18248;51.522;7.020;2023-05-07T06:24:04;21.50;99.90
31639;DHT22;18248;51.522;7.020;2023-05-07T06:27:03;21.80;99.90
31639;DHT22;18248;51.522;7.020;2023-05-07T06:30:01;21.70;99.90
31639;DHT22;18248;51.522;7.020;2023-05-07T06:33:00;21.30;99.90
31639;DHT22;18248;51.522;7.020;2023-05-07T06:35:59;21.10;99.90
31639;DHT22;18248;51.522;7.020;2023-05-07T06:38:57;20.80;99.90
31639;DHT22;18248;51.522;7.020;2023-05-07T06:41:56;20.50;99.90
31639;DHT22;18248;51.522;7.020;2023-05-07T06:44:55;20.20;99.90
31639;DHT22;18248;51.522;7.020;2023-05-07T06:47:53;20.10;99.90
31639;DHT22;18248;51.522;7.020;2023-05-07T06:50:52;19.90;99.90
31639;DHT22;18248;51.522;7.020;2023-05-07T06:53:51;19.80;99.90
31639;DHT22;18248;51.522;7.020;2023-05-07T06:56:52;19.70;99.90
31639;DHT22;18248;51.522;7.020;2023-05-07T06:59:51;19.60;99.90
31639;DHT22;18248;51.522;7.020;2023-05-07T07:02:49;19.50;99.90
31639;DHT22;18248;51.522;7.020;2023-05-07T07:05:52;19.70;99.90
31639;DHT22;18248;51.522;7.020;2023-05-07T07:08:51;19.80;99.90
31639;DHT22;18248;51.522;7.020;2023-05-07T07:11:49;19.90;99.90
31639;DHT22;18248;51.522;7.020;2023-05-07T07:14:48;20.10;99.90
31639;DHT22;18248;51.522;7.020;2023-05-07T07:17:47;20.20;99.90
31639;DHT22;18248;51.522;7.020;2023-05-07T07:20:47;20.30;99.90
31639;DHT22;18248;51.522;7.020;2023-05-07T07:23:46;20.40;99.90
31639;DHT22;18248;51.522;7.020;2023-05-07T07:26:45;20.70;99.90
31639;DHT22;18248;51.522;7.020;2023-05-07T07:29:43;21.10;99.90
31639;DHT22;18248;51.522;7.020;2023-05-07T07:32:42;21.60;99.90
31639;DHT22;18248;51.522;7.020;2023-05-07T07:35:41;21.80;99.90
31639;DHT22;18248;51.522;7.020;2023-05-07T07:38:39;21.90;99.90
31639;DHT22;18248;51.522;7.020;2023-05-07T07:41:38;21.70;99.90
31639;DHT22;18248;51.522;7.020;2023-05-07T07:44:36;21.80;99.90
31639;DHT22;18248;51.522;7.020;2023-05-07T07:47:35;21.60;99.90
31639;DHT22;18248;51.522;7.020;2023-05-07T07:50:33;21.80;99.90
31639;DHT22;18248;51.522;7.020;2023-05-07T07:53:32;22.00;99.90
31639;DHT22;18248;51.522;7.020;2023-05-07T07:56:32;22.00;99.90
31639;DHT22;18248;51.522;7.020;2023-05-07T07:59:31;22.00;99.90
31639;DHT22;18248;51.522;7.020;2023-05-07T08:02:30;21.80;99.90
31639;DHT22;18248;51.522;7.020;2023-05-07T08:05:29;21.70;99.90
31639;DHT22;18248;51.522;7.020;2023-05-07T08:08:29;21.60;99.90
31639;DHT22;18248;51.522;7.020;2023-05-07T08:11:28;21.50;99.90
31639;DHT22;18248;51.522;7.020;2023-05-07T08:14:26;21.70;99.90
31639;DHT22;18248;51.522;7.020;2023-05-07T08:17:26;21.90;99.90
31639;DHT22;18248;51.522;7.020;2023-05-07T08:20:25;21.90;99.90
31639;DHT22;18248;51.522;7.020;2023-05-07T08:23:23;22.00;99.90
31639;DHT22;18248;51.522;7.020;2023-05-07T08:26:22;22.00;99.90
31639;DHT22;18248;51.522;7.020;2023-05-07T08:29:20;21.90;99.90
31639;DHT22;18248;51.522;7.020;2023-05-07T08:32:19;21.90;99.90
31639;DHT22;18248;51.522;7.020;2023-05-07T08:35:18;21.80;99.90
31639;DHT22;18248;51.522;7.020;2023-05-07T08:38:16;21.80;99.90
31639;DHT22;18248;51.522;7.020;2023-05-07T08:41:15;21.80;99.90
31639;DHT22;18248;51.522;7.020;2023-05-07T08:44:15;21.80;99.90
31639;DHT22;18248;51.522;7.020;2023-05-07T08:47:15;21.80;99.90
31639;DHT22;18248;51.522;7.020;2023-05-07T08:50:14;21.70;99.90
31639;DHT22;18248;51.522;7.020;2023-05-07T08:53:13;21.60;99.90
31639;DHT22;18248;51.522;7.020;2023-05-07T08:56:13;21.60;99.90
31639;DHT22;18248;51.522;7.020;2023-05-07T08:59:14;21.50;99.90
31639;DHT22;18248;51.522;7.020;2023-05-07T09:02:13;21.60;99.90
31639;DHT22;18248;51.522;7.020;2023-05-07T09:05:12;21.80;99.90
31639;DHT22;18248;51.522;7.020;2023-05-07T09:08:14;22.00;99.90
31639;DHT22;18248;51.522;7.020;2023-05-07T09:11:13;22.20;99.90
31639;DHT22;18248;51.522;7.020;2023-05-07T09:14:12;22.50;99.90
31639;DHT22;18248;51.522;7.020;2023-05-07T09:17:10;22.90;99.90
31639;DHT22;18248;51.522;7.020;2023-05-07T09:20:09;23.30;99.90
31639;DHT22;18248;51.522;7.020;2023-05-07T09:23:08;23.60;99.90
31639;DHT22;18248;51.522;7.020;2023-05-07T09:26:08;23.90;99.90
31639;DHT22;18248;51.522;7.020;2023-05-07T09:29:10;23.90;99.90
31639;DHT22;18248;51.522;7.020;2023-05-07T09:32:09;23.80;99.90
31639;DHT22;18248;51.522;7.020;2023-05-07T09:35:15;23.90;99.90
31639;DHT22;18248;51.522;7.020;2023-05-07T09:38:14;24.00;99.90
31639;DHT22;18248;51.522;7.020;2023-05-07T09:41:22;24.20;99.90
31639;DHT22;18248;51.522;7.020;2023-05-07T09:44:22;24.30;99.90
31639;DHT22;18248;51.522;7.020;2023-05-07T09:47:24;24.40;99.90
31639;DHT22;18248;51.522;7.020;2023-05-07T09:50:32;24.40;99.90
31639;DHT22;18248;51.522;7.020;2023-05-07T09:53:33;24.60;99.90
31639;DHT22;18248;51.522;7.020;2023-05-07T09:56:35;24.70;99.90
31639;DHT22;18248;51.522;7.020;2023-05-07T09:59:37;24.60;99.90
31639;DHT22;18248;51.522;7.020;2023-05-07T10:02:36;24.70;99.90
31639;DHT22;18248;51.522;7.020;2023-05-07T10:05:36;24.70;99.90
31639;DHT22;18248;51.522;7.020;2023-05-07T10:08:36;24.70;99.90
31639;DHT22;18248;51.522;7.020;2023-05-07T10:11:37;24.90;99.90
31639;DHT22;18248;51.522;7.020;2023-05-07T10:14:36;25.10;99.90
31639;DHT22;18248;51.522;7.020;2023-05-07T10:17:36;25.30;99.90
31639;DHT22;18248;51.522;7.020;2023-05-07T10:20:37;25.10;99.90
31639;DHT22;18248;51.522;7.020;2023-05-07T10:23:38;25.00;99.90
31639;DHT22;18248;51.522;7.020;2023-05-07T10:26:38;24.90;99.90
31639;DHT22;18248;51.522;7.020;2023-05-07T10:30:15;24.80;99.90
31639;DHT22;18248;51.522;7.020;2023-05-07T10:33:24;24.70;99.90
31639;DHT22;18248;51.522;7.020;2023-05-07T10:36:23;24.80;99.90
31639;DHT22;18248;51.522;7.020;2023-05-07T10:39:22;24.60;99.90
31639;DHT22;18248;51.522;7.020;2023-05-07T10:42:21;24.70;99.90
31639;DHT22;18248;51.522;7.020;2023-05-07T10:45:21;24.80;99.90
31639;DHT22;18248;51.522;7.020;2023-05-07T10:48:20;24.80;99.90
31639;DHT22;18248;51.522;7.020;2023-05-07T10:51:22;24.80;99.90
31639;DHT22;18248;51.522;7.020;2023-05-07T10:54:21;24.70;99.90
31639;DHT22;18248;51.522;7.020;2023-05-07T10:57:38;24.90;99.90
31639;DHT22;18248;51.522;7.020;2023-05-07T11:03:35;24.90;99.90
31639;DHT22;18248;51.522;7.020;2023-05-07T11:06:34;25.00;99.90
31639;DHT22;18248;51.522;7.020;2023-05-07T11:12:56;24.90;99.90
31639;DHT22;18248;51.522;7.020;2023-05-07T11:15:56;24.90;99.90
31639;DHT22;18248;51.522;7.020;2023-05-07T11:18:59;24.80;99.90
31639;DHT22;18248;51.522;7.020;2023-05-07T11:21:58;24.80;99.90
31639;DHT22;18248;51.522;7.020;2023-05-07T11:25:01;24.80;99.90
31639;DHT22;18248;51.522;7.020;2023-05-07T11:28:06;24.90;99.90
31639;DHT22;18248;51.522;7.020;2023-05-07T11:31:09;24.80;99.90
31639;DHT22;18248;51.522;7.020;2023-05-07T11:34:08;24.90;99.90
31639;DHT22;18248;51.522;7.020;2023-05-07T11:37:09;25.20;99.90
31639;DHT22;18248;51.522;7.020;2023-05-07T11:40:09;25.60;99.90
31639;DHT22;18248;51.522;7.020;2023-05-07T11:43:12;25.80;99.90
31639;DHT22;18248;51.522;7.020;2023-05-07T11:46:11;26.00;99.90
31639;DHT22;18248;51.522;7.020;2023-05-07T11:49:10;26.00;99.90
31639;DHT22;18248;51.522;7.020;2023-05-07T11:52:08;26.40;99.90
31639;DHT22;18248;51.522;7.020;2023-05-07T11:55:08;26.60;99.90
31639;DHT22;18248;51.522;7.020;2023-05-07T11:58:06;26.80;99.90
31639;DHT22;18248;51.522;7.020;2023-05-07T12:01:11;26.80;99.90
31639;DHT22;18248;51.522;7.020;2023-05-07T12:04:09;26.60;99.90
31639;DHT22;18248;51.522;7.020;2023-05-07T12:07:12;26.50;99.90
31639;DHT22;18248;51.522;7.020;2023-05-07T12:10:12;26.30;99.90
31639;DHT22;18248;51.522;7.020;2023-05-07T12:13:15;26.00;99.90
31639;DHT22;18248;51.522;7.020;2023-05-07T12:16:14;25.90;99.90
31639;DHT22;18248;51.522;7.020;2023-05-07T12:19:13;25.70;99.90
31639;DHT22;18248;51.522;7.020;2023-05-07T12:22:12;25.70;99.90
31639;DHT22;18248;51.522;7.020;2023-05-07T12:25:11;25.50;99.90
31639;DHT22;18248;51.522;7.020;2023-05-07T12:28:16;25.40;99.90
31639;DHT22;18248;51.522;7.020;2023-05-07T12:31:15;25.20;99.90
31639;DHT22;18248;51.522;7.020;2023-05-07T12:34:14;25.20;99.90
31639;DHT22;18248;51.522;7.020;2023-05-07T12:37:13;25.10;99.90
31639;DHT22;18248;51.522;7.020;2023-05-07T12:40:12;25.10;99.90
31639;DHT22;18248;51.522;7.020;2023-05-07T12:43:18;25.10;99.90
31639;DHT22;18248;51.522;7.020;2023-05-07T12:46:16;25.20;99.90
31639;DHT22;18248;51.522;7.020;2023-05-07T12:49:16;25.20;99.90
31639;DHT22;18248;51.522;7.020;2023-05-07T12:52:16;25.20;99.90
31639;DHT22;18248;51.522;7.020;2023-05-07T12:55:15;25.40;99.90
31639;DHT22;18248;51.522;7.020;2023-05-07T12:58:20;25.30;99.90
31639;DHT22;18248;51.522;7.020;2023-05-07T13:01:18;25.20;99.90
31639;DHT22;18248;51.522;7.020;2023-05-07T13:04:17;25.10;99.90
31639;DHT22;18248;51.522;7.020;2023-05-07T13:07:16;25.00;99.90
31639;DHT22;18248;51.522;7.020;2023-05-07T13:10:14;24.90;99.90
31639;DHT22;18248;51.522;7.020;2023-05-07T13:13:14;24.80;99.90
31639;DHT22;18248;51.522;7.020;2023-05-07T13:16:13;24.70;99.90
31639;DHT22;18248;51.522;7.020;2023-05-07T13:19:13;24.60;99.90
31639;DHT22;18248;51.522;7.020;2023-05-07T13:22:11;24.40;99.90
31639;DHT22;18248;51.522;7.020;2023-05-07T13:25:10;24.20;99.90
31639;DHT22;18248;51.522;7.020;2023-05-07T13:28:08;24.00;99.90
31639;DHT22;18248;51.522;7.020;2023-05-07T13:31:07;24.00;99.90
31639;DHT22;18248;51.522;7.020;2023-05-07T13:34:06;23.90;99.90
31639;DHT22;18248;51.522;7.020;2023-05-07T13:37:04;23.90;99.90
31639;DHT22;18248;51.522;7.020;2023-05-07T13:40:03;23.70;99.90
31639;DHT22;18248;51.522;7.020;2023-05-07T13:43:02;23.60;99.90
31639;DHT22;18248;51.522;7.020;2023-05-07T13:46:01;23.60;99.90
31639;DHT22;18248;51.522;7.020;2023-05-07T13:49:00;23.50;99.90
31639;DHT22;18248;51.522;7.020;2023-05-07T13:51:58;23.40;99.90
31639;DHT22;18248;51.522;7.020;2023-05-07T13:54:57;23.40;99.90
31639;DHT22;18248;51.522;7.020;2023-05-07T13:57:59;23.30;99.90
31639;DHT22;18248;51.522;7.020;2023-05-07T14:00:57;23.20;99.90
31639;DHT22;18248;51.522;7.020;2023-05-07T14:03:56;23.00;99.90
31639;DHT22;18248;51.522;7.020;2023-05-07T14:06:56;22.90;99.90
31639;DHT22;18248;51.522;7.020;2023-05-07T14:09:54;22.70;99.90
31639;DHT22;18248;51.522;7.020;2023-05-07T14:12:53;22.60;99.90
31639;DHT22;18248;51.522;7.020;2023-05-07T14:15:52;22.50;99.90
31639;DHT22;18248;51.522;7.020;2023-05-07T14:18:54;22.40;99.90
31639;DHT22;18248;51.522;7.020;2023-05-07T14:21:52;22.30;99.90
31639;DHT22;18248;51.522;7.020;2023-05-07T14:24:51;22.20;99.90
31639;DHT22;18248;51.522;7.020;2023-05-07T14:27:49;22.00;99.90
31639;DHT22;18248;51.522;7.020;2023-05-07T14:30:48;21.90;99.90
31639;DHT22;18248;51.522;7.020;2023-05-07T14:33:47;21.80;99.90
31639;DHT22;18248;51.522;7.020;2023-05-07T14:36:47;21.80;99.90
31639;DHT22;18248;51.522;7.020;2023-05-07T14:39:45;21.70;99.90
31639;DHT22;18248;51.522;7.020;2023-05-07T14:42:44;21.70;99.90
31639;DHT22;18248;51.522;7.020;2023-05-07T14:45:43;21.60;99.90
31639;DHT22;18248;51.522;7.020;2023-05-07T14:48:41;21.50;99.90
31639;DHT22;18248;51.522;7.020;2023-05-07T14:51:40;21.60;99.90
31639;DHT22;18248;51.522;7.020;2023-05-07T14:54:38;21.60;99.90
31639;DHT22;18248;51.522;7.020;2023-05-07T14:57:37;21.60;99.90
31639;DHT22;18248;51.522;7.020;2023-05-07T15:00:37;21.50;99.90
31639;DHT22;18248;51.522;7.020;2023-05-07T15:03:36;21.60;99.90
31639;DHT22;18248;51.522;7.020;2023-05-07T15:06:34;21.60;99.90
31639;DHT22;18248;51.522;7.020;2023-05-07T15:09:33;21.60;99.90
31639;DHT22;18248;51.522;7.020;2023-05-07T15:12:31;21.60;99.90
31639;DHT22;18248;51.522;7.020;2023-05-07T15:15:31;21.70;99.90
31639;DHT22;18248;51.522;7.020;2023-05-07T15:18:29;21.70;99.90
31639;DHT22;18248;51.522;7.020;2023-05-07T15:21:28;21.70;99.90
31639;DHT22;18248;51.522;7.020;2023-05-07T15:24:27;21.70;99.90
31639;DHT22;18248;51.522;7.020;2023-05-07T15:27:25;21.60;99.90
31639;DHT22;18248;51.522;7.020;2023-05-07T15:30:24;21.60;99.90
31639;DHT22;18248;51.522;7.020;2023-05-07T15:33:23;21.60;99.90
31639;DHT22;18248;51.522;7.020;2023-05-07T15:36:22;21.70;99.90
31639;DHT22;18248;51.522;7.020;2023-05-07T15:39:21;21.80;99.90
31639;DHT22;18248;51.522;7.020;2023-05-07T15:42:19;21.80;99.90
31639;DHT22;18248;51.522;7.020;2023-05-07T15:45:18;21.80;99.90
31639;DHT22;18248;51.522;7.020;2023-05-07T15:48:16;21.90;99.90
31639;DHT22;18248;51.522;7.020;2023-05-07T15:51:16;22.00;99.90
31639;DHT22;18248;51.522;7.020;2023-05-07T15:54:15;22.00;99.90
31639;DHT22;18248;51.522;7.020;2023-05-07T15:57:15;22.10;99.90
31639;DHT22;18248;51.522;7.020;2023-05-07T16:00:14;22.10;99.90
31639;DHT22;18248;51.522;7.020;2023-05-07T16:03:14;22.20;99.90
31639;DHT22;18248;51.522;7.020;2023-05-07T16:06:13;22.30;99.90
31639;DHT22;18248;51.522;7.020;2023-05-07T16:09:12;22.30;99.90
31639;DHT22;18248;51.522;7.020;2023-05-07T16:12:11;22.40;99.90
31639;DHT22;18248;51.522;7.020;2023-05-07T16:15:11;22.40;99.90
31639;DHT22;18248;51.522;7.020;2023-05-07T16:18:10;22.40;99.90
31639;DHT22;18248;51.522;7.020;2023-05-07T16:21:09;22.40;99.90
31639;DHT22;18248;51.522;7.020;2023-05-07T16:24:09;22.50;99.90
31639;DHT22;18248;51.522;7.020;2023-05-07T16:27:08;22.40;99.90
31639;DHT22;18248;51.522;7.020;2023-05-07T16:30:11;22.40;99.90
31639;DHT22;18248;51.522;7.020;2023-05-07T16:33:10;22.30;99.90
31639;DHT22;18248;51.522;7.020;2023-05-07T16:36:09;22.30;99.90
31639;DHT22;18248;51.522;7.020;2023-05-07T16:39:09;22.20;99.90
31639;DHT22;18248;51.522;7.020;2023-05-07T16:42:07;22.20;99.90
31639;DHT22;18248;51.522;7.020;2023-05-07T16:45:06;22.20;99.90
31639;DHT22;18248;51.522;7.020;2023-05-07T16:48:06;22.20;99.90
31639;DHT22;18248;51.522;7.020;2023-05-07T16:51:05;22.20;99.90
31639;DHT22;18248;51.522;7.020;2023-05-07T16:54:06;22.10;99.90
31639;DHT22;18248;51.522;7.020;2023-05-07T16:57:05;22.10;99.90
31639;DHT22;18248;51.522;7.020;2023-05-07T17:00:04;22.00;99.90
31639;DHT22;18248;51.522;7.020;2023-05-07T17:03:04;22.00;99.90
31639;DHT22;18248;51.522;7.020;2023-05-07T17:06:03;22.00;99.90
31639;DHT22;18248;51.522;7.020;2023-05-07T17:09:02;21.90;99.90
31639;DHT22;18248;51.522;7.020;2023-05-07T17:12:01;21.90;99.90
31639;DHT22;18248;51.522;7.020;2023-05-07T17:15:00;21.90;99.90
31639;DHT22;18248;51.522;7.020;2023-05-07T17:17:58;21.80;99.90
31639;DHT22;18248;51.522;7.020;2023-05-07T17:20:57;21.70;99.90
31639;DHT22;18248;51.522;7.020;2023-05-07T17:23:56;21.70;99.90
31639;DHT22;18248;51.522;7.020;2023-05-07T17:26:54;21.60;99.90
31639;DHT22;18248;51.522;7.020;2023-05-07T17:29:53;21.60;99.90
31639;DHT22;18248;51.522;7.020;2023-05-07T17:32:52;21.50;99.90
31639;DHT22;18248;51.522;7.020;2023-05-07T17:35:52;21.50;99.90
31639;DHT22;18248;51.522;7.020;2023-05-07T17:38:50;21.50;99.90
31639;DHT22;18248;51.522;7.020;2023-05-07T17:41:49;21.40;99.90
31639;DHT22;18248;51.522;7.020;2023-05-07T17:44:48;21.40;99.90
31639;DHT22;18248;51.522;7.020;2023-05-07T17:47:46;21.30;99.90
31639;DHT22;18248;51.522;7.020;2023-05-07T17:50:45;21.20;99.90
31639;DHT22;18248;51.522;7.020;2023-05-07T17:53:43;21.30;99.90
31639;DHT22;18248;51.522;7.020;2023-05-07T17:56:43;21.20;99.90
31639;DHT22;18248;51.522;7.020;2023-05-07T17:59:42;21.10;99.90
31639;DHT22;18248;51.522;7.020;2023-05-07T18:02:41;21.10;99.90
31639;DHT22;18248;51.522;7.020;2023-05-07T18:05:39;21.10;99.90
31639;DHT22;18248;51.522;7.020;2023-05-07T18:08:38;21.00;99.90
31639;DHT22;18248;51.522;7.020;2023-05-07T18:11:36;20.90;99.90
31639;DHT22;18248;51.522;7.020;2023-05-07T18:14:35;20.90;99.90
31639;DHT22;18248;51.522;7.020;2023-05-07T18:17:35;20.90;99.90
31639;DHT22;18248;51.522;7.020;2023-05-07T18:20:33;20.80;99.90
31639;DHT22;18248;51.522;7.020;2023-05-07T18:23:34;20.80;99.90
31639;DHT22;18248;51.522;7.020;2023-05-07T18:26:34;20.80;99.90
31639;DHT22;18248;51.522;7.020;2023-05-07T18:29:32;20.70;99.90
31639;DHT22;18248;51.522;7.020;2023-05-07T18:32:31;20.70;99.90
31639;DHT22;18248;51.522;7.020;2023-05-07T18:35:30;20.70;99.90
31639;DHT22;18248;51.522;7.020;2023-05-07T18:38:28;20.70;99.90
31639;DHT22;18248;51.522;7.020;2023-05-07T18:41:27;20.60;99.90
31639;DHT22;18248;51.522;7.020;2023-05-07T18:44:26;20.60;99.90
31639;DHT22;18248;51.522;7.020;2023-05-07T18:47:24;20.50;99.90
31639;DHT22;18248;51.522;7.020;2023-05-07T18:50:23;20.50;99.90
31639;DHT22;18248;51.522;7.020;2023-05-07T18:53:22;20.40;99.90
31639;DHT22;18248;51.522;7.020;2023-05-07T18:56:22;20.30;99.90
31639;DHT22;18248;51.522;7.020;2023-05-07T18:59:20;20.30;99.90